Time;durP1;ratioP1;P1;durP2;ratioP2;P2;SDS_P1;SDS_P2;PMS_P1;PMS_P2;Temp;Humidity;BMP_temperature;BMP_pressure;BME280_temperature;BME280_humidity;BME280_pressure;Samples;Min_cycle;Max_cycle;Signal;HPM_P1;HPM_P2
2021/01/26 00:04:57;;;;;;;31.73;17.40;;;;;;;2.71;63.79;97976.51;260471;1105;114864;-72
2021/01/26 00:10:00;;;;;;;28.00;16.37;;;;;;;2.76;63.64;97971.91;260088;1105;114875;-72
2021/01/26 00:15:05;;;;;;;32.35;17.77;;;;;;;2.72;63.75;97975.60;259950;1105;114977;-72
2021/01/26 00:20:11;;;;;;;35.10;17.73;;;;;;;2.68;64.10;97981.91;259937;1105;115011;-72
2021/01/26 00:25:22;;;;;;;29.33;16.87;;;;;;;2.71;63.93;97989.64;260049;1105;115105;-72
2021/01/26 00:30:30;;;;;;;30.77;16.23;;;;;;;2.72;63.13;97989.59;260181;1105;114950;-72
2021/01/26 00:35:33;;;;;;;31.20;17.10;;;;;;;2.71;63.74;97984.39;260052;1105;114922;-72
2021/01/26 00:40:35;;;;;;;33.03;16.97;;;;;;;2.75;63.40;97993.81;260198;1105;115019;-72
2021/01/26 00:45:38;;;;;;;27.77;15.80;;;;;;;2.71;63.73;97998.37;259905;1105;115116;-72
2021/01/26 00:50:41;;;;;;;33.53;17.42;;;;;;;2.64;63.79;98002.20;259809;1105;115962;-72
2021/01/26 00:55:43;;;;;;;35.98;17.85;;;;;;;2.65;63.83;98011.81;260127;1105;115180;-72
2021/01/26 01:00:46;;;;;;;30.50;15.40;;;;;;;2.69;63.93;98017.77;260111;1105;114872;-72
2021/01/26 01:05:51;;;;;;;32.67;16.87;;;;;;;2.64;63.62;98014.49;260261;1105;115048;-69
2021/01/26 01:10:53;;;;;;;30.97;17.20;;;;;;;2.55;63.77;98013.16;259798;1105;115623;-70
2021/01/26 01:16:03;;;;;;;36.17;17.50;;;;;;;2.53;63.53;98021.09;258396;1105;114788;-70
2021/01/26 01:21:06;;;;;;;32.00;17.02;;;;;;;2.53;64.03;98022.88;259876;1105;115074;-71
2021/01/26 01:26:09;;;;;;;33.40;17.83;;;;;;;2.54;63.76;98022.79;260211;1105;114863;-71
2021/01/26 01:31:11;;;;;;;31.37;17.87;;;;;;;2.60;64.07;98027.77;260092;1104;115056;-70
2021/01/26 01:36:13;;;;;;;32.53;18.03;;;;;;;2.55;63.96;98029.77;260238;1105;114968;-70
2021/01/26 01:41:15;;;;;;;34.07;17.50;;;;;;;2.48;64.00;98028.34;260302;1105;116118;-70
2021/01/26 01:46:21;;;;;;;36.40;17.00;;;;;;;2.47;63.62;98023.15;260351;1105;115277;-71
2021/01/26 01:51:26;;;;;;;29.90;16.80;;;;;;;2.46;63.81;98021.45;260228;1105;115242;-71
2021/01/26 01:56:46;;;;;;;30.40;16.63;;;;;;;2.40;63.58;98019.95;260143;1105;114904;-71
2021/01/26 02:01:49;;;;;;;27.80;15.60;;;;;;;2.37;63.84;98023.55;260133;1105;115053;-71
2021/01/26 02:06:55;;;;;;;28.80;15.65;;;;;;;2.37;64.15;98030.59;259912;1103;114839;-71
2021/01/26 02:11:58;;;;;;;30.77;17.60;;;;;;;2.31;64.11;98036.98;259997;1105;115246;-72
2021/01/26 02:17:37;;;;;;;34.63;17.27;;;;;;;2.31;63.80;98033.48;260245;1105;116243;-72
2021/01/26 02:23:16;;;;;;;35.73;17.95;;;;;;;2.32;64.17;98027.33;260376;1105;115389;-71
2021/01/26 02:28:52;;;;;;;35.10;17.17;;;;;;;2.30;64.17;98037.03;260197;1105;114723;-71
2021/01/26 02:34:22;;;;;;;31.53;17.50;;;;;;;2.23;64.57;98044.33;260049;1105;114944;-71
2021/01/26 02:39:36;;;;;;;35.33;19.82;;;;;;;2.23;64.38;98046.11;260270;1105;115206;-71
2021/01/26 02:44:41;;;;;;;23.95;13.00;;;;;;;2.23;64.31;98035.61;259759;1105;116369;-71
2021/01/26 02:50:10;;;;;;;31.57;18.50;;;;;;;2.22;64.41;98031.30;260140;1105;115199;-71
2021/01/26 02:55:53;;;;;;;32.20;18.00;;;;;;;2.25;64.48;98032.00;260497;1105;116625;-72
2021/01/26 03:00:59;;;;;;;31.35;17.42;;;;;;;2.28;64.34;98039.75;259641;1105;115013;-71
2021/01/26 03:06:12;;;;;;;34.15;18.55;;;;;;;2.30;64.68;98055.41;259978;1105;115257;-71
2021/01/26 03:11:38;;;;;;;31.33;17.53;;;;;;;2.32;64.45;98050.95;259865;1105;114935;-71
2021/01/26 03:16:43;;;;;;;31.70;18.17;;;;;;;2.28;64.73;98052.87;260307;1105;114785;-71
2021/01/26 03:21:51;;;;;;;28.73;16.47;;;;;;;2.19;64.39;98062.92;260329;1104;115431;-71
2021/01/26 03:26:54;;;;;;;30.87;16.30;;;;;;;2.17;64.50;98070.00;260024;1105;115079;-72
2021/01/26 03:32:00;;;;;;;33.70;18.15;;;;;;;2.17;64.67;98075.24;260340;1105;115173;-72
2021/01/26 03:37:05;;;;;;;37.63;20.10;;;;;;;2.16;64.65;98065.67;260151;1105;115367;-71
2021/01/26 03:42:07;;;;;;;38.50;20.80;;;;;;;2.08;64.68;98081.77;260312;1105;115376;-72
2021/01/26 03:47:18;;;;;;;42.90;22.93;;;;;;;1.99;65.27;98080.37;259738;1105;115353;-72
2021/01/26 03:52:23;;;;;;;43.27;23.57;;;;;;;2.00;65.00;98086.47;260065;1105;115597;-71
2021/01/26 03:57:37;;;;;;;42.40;23.00;;;;;;;1.98;65.02;98081.30;259811;1105;114905;-71
2021/01/26 04:03:14;;;;;;;40.60;23.33;;;;;;;1.88;65.08;98082.61;260351;1105;114894;-71
2021/01/26 04:08:22;;;;;;;42.15;22.37;;;;;;;1.86;65.20;98094.92;260357;1105;114985;-72
2021/01/26 04:13:30;;;;;;;42.70;23.53;;;;;;;1.92;65.23;98088.58;260029;1105;114994;-71
2021/01/26 04:18:39;;;;;;;39.88;22.05;;;;;;;1.91;65.48;98092.12;260189;1105;114820;-72
2021/01/26 04:23:43;;;;;;;42.60;23.85;;;;;;;1.88;65.40;98101.82;259769;1105;115115;-71
2021/01/26 04:28:49;;;;;;;42.17;21.10;;;;;;;1.94;65.65;98103.34;259852;1105;114889;-72
2021/01/26 04:33:51;;;;;;;40.23;22.20;;;;;;;1.84;65.64;98110.74;260266;1105;115199;-72
2021/01/26 04:38:53;;;;;;;46.00;23.97;;;;;;;1.82;65.80;98106.47;260106;1105;115003;-72
2021/01/26 04:44:27;;;;;;;44.00;23.63;;;;;;;1.83;65.78;98122.12;260597;1105;114961;-71
2021/01/26 04:50:04;;;;;;;42.43;21.33;;;;;;;1.87;65.66;98123.73;259997;1105;114883;-71
2021/01/26 04:55:24;;;;;;;42.57;23.10;;;;;;;1.93;65.64;98129.62;259384;1105;115020;-70
2021/01/26 05:01:14;;;;;;;42.58;23.20;;;;;;;1.91;65.81;98121.83;259579;1105;115897;-70
2021/01/26 05:06:22;;;;;;;46.50;23.57;;;;;;;1.92;65.75;98135.80;259563;1105;115755;-71
2021/01/26 05:11:34;;;;;;;45.87;24.30;;;;;;;1.89;66.12;98127.13;259034;1105;115358;-72
2021/01/26 05:17:02;;;;;;;42.05;23.90;;;;;;;1.93;66.35;98135.72;259017;1105;115103;-71
2021/01/26 05:22:42;;;;;;;46.80;22.97;;;;;;;1.97;66.69;98139.95;259028;1105;115130;-69
2021/01/26 05:27:52;;;;;;;43.20;23.77;;;;;;;1.97;65.94;98149.56;258714;1105;115370;-73
2021/01/26 05:32:58;;;;;;;43.40;22.20;;;;;;;1.96;65.89;98147.87;259976;1105;116950;-72
2021/01/26 05:38:01;;;;;;;40.83;23.35;;;;;;;1.94;66.28;98150.56;260445;1105;115399;-71
2021/01/26 05:43:05;;;;;;;42.60;24.40;;;;;;;1.97;66.31;98166.19;260044;1105;115308;-72
2021/01/26 05:48:12;;;;;;;48.28;25.43;;;;;;;2.00;66.20;98167.80;260092;1105;114876;-71
2021/01/26 05:53:29;;;;;;;45.80;25.43;;;;;;;2.04;66.67;98166.78;260038;1105;114960;-71
2021/01/26 05:58:32;;;;;;;46.47;24.57;;;;;;;2.07;65.95;98180.63;260069;1105;114814;-71
2021/01/26 06:03:34;;;;;;;37.80;22.20;;;;;;;2.00;65.97;98176.53;259872;1105;114964;-70
2021/01/26 06:08:54;;;;;;;38.05;21.45;;;;;;;1.97;65.71;98187.17;260011;1105;115065;-70
2021/01/26 06:14:13;;;;;;;39.73;21.23;;;;;;;2.02;66.20;98189.59;260123;1104;114759;-70
2021/01/26 06:19:15;;;;;;;33.63;17.80;;;;;;;2.14;66.01;98196.98;260021;1105;115208;-71
2021/01/26 06:24:24;;;;;;;26.57;14.40;;;;;;;2.20;65.64;98198.47;259922;1105;115508;-72
2021/01/26 06:29:55;;;;;;;25.75;14.70;;;;;;;2.22;65.91;98201.90;259761;1105;115141;-73
2021/01/26 06:35:18;;;;;;;27.85;14.93;;;;;;;2.23;65.37;98206.22;259735;1105;115282;-72
2021/01/26 06:40:32;;;;;;;30.27;15.90;;;;;;;2.22;65.26;98212.39;259753;1105;115003;-73
2021/01/26 06:45:49;;;;;;;28.52;16.27;;;;;;;2.26;65.14;98206.95;259950;1105;115113;-72
2021/01/26 06:51:11;;;;;;;23.07;14.17;;;;;;;2.28;65.05;98205.13;259951;1105;115001;-71
2021/01/26 06:56:39;;;;;;;27.70;15.58;;;;;;;2.23;65.04;98216.72;260093;1105;114827;-70
2021/01/26 07:02:19;;;;;;;29.10;16.27;;;;;;;2.19;65.02;98221.25;259790;1105;115079;-71
2021/01/26 07:07:34;;;;;;;27.23;16.27;;;;;;;2.19;65.11;98230.89;260144;1105;115330;-74
2021/01/26 07:13:00;;;;;;;34.43;19.15;;;;;;;2.19;65.53;98231.74;260059;1105;114950;-72
2021/01/26 07:18:21;;;;;;;34.13;20.17;;;;;;;2.22;65.01;98238.64;259966;1102;115635;-70
2021/01/26 07:23:56;;;;;;;41.68;21.40;;;;;;;2.23;65.59;98243.81;259778;1105;115250;-71
2021/01/26 07:29:07;;;;;;;39.95;22.05;;;;;;;2.21;65.83;98245.67;259844;1105;115012;-70
2021/01/26 07:34:21;;;;;;;35.03;20.57;;;;;;;2.19;65.68;98254.52;260423;1105;114791;-70
2021/01/26 07:39:37;;;;;;;39.33;20.93;;;;;;;2.20;65.71;98254.44;259845;1105;114995;-72
2021/01/26 07:44:46;;;;;;;36.50;21.27;;;;;;;2.20;65.68;98256.22;259918;1104;115051;-71
2021/01/26 07:50:10;;;;;;;35.90;20.97;;;;;;;2.20;65.53;98264.94;259704;1105;114799;-72
2021/01/26 07:55:26;;;;;;;35.70;20.85;;;;;;;2.24;65.25;98261.30;259804;1104;115206;-71
2021/01/26 08:00:36;;;;;;;38.97;20.97;;;;;;;2.25;65.64;98268.25;260039;1105;114813;-71
2021/01/26 08:05:45;;;;;;;27.53;17.20;;;;;;;2.31;66.19;98267.12;260200;1105;115004;-71
2021/01/26 08:11:25;;;;;;;35.30;21.03;;;;;;;2.31;65.64;98273.25;259801;1105;115128;-73
2021/01/26 08:16:33;;;;;;;36.80;21.47;;;;;;;2.31;66.21;98270.63;259755;1105;115235;-71
2021/01/26 08:21:45;;;;;;;36.10;21.07;;;;;;;2.28;65.98;98277.77;259878;1105;115149;-71
2021/01/26 08:26:52;;;;;;;37.07;21.30;;;;;;;2.22;65.61;98291.14;259947;1105;114954;-70
2021/01/26 08:31:55;;;;;;;38.00;21.93;;;;;;;2.20;66.10;98287.71;259924;1105;116126;-70
2021/01/26 08:37:11;;;;;;;42.43;23.17;;;;;;;2.18;65.82;98297.44;259798;1105;115296;-71
2021/01/26 08:42:43;;;;;;;38.20;22.50;;;;;;;2.15;66.29;98303.66;260086;1105;114776;-71
2021/01/26 08:47:50;;;;;;;40.63;22.22;;;;;;;2.15;65.89;98301.03;259879;1105;114964;-72
2021/01/26 08:53:12;;;;;;;39.97;22.83;;;;;;;2.19;66.52;98309.63;260007;1105;115439;-72
2021/01/26 08:58:36;;;;;;;43.93;24.60;;;;;;;2.28;66.52;98318.00;260107;1105;114795;-72
2021/01/26 09:03:42;;;;;;;35.43;21.68;;;;;;;2.29;66.35;98316.23;260238;1105;114804;-72
2021/01/26 09:08:47;;;;;;;40.05;20.95;;;;;;;2.38;66.67;98328.98;260027;1105;114960;-73
2021/01/26 09:13:50;;;;;;;;;;;;;;;2.44;66.33;98333.97;259983;1105;115091;-74
2021/01/26 09:19:06;;;;;;;43.40;21.57;;;;;;;2.53;66.32;98333.60;259876;1105;103286;-72
2021/01/26 09:24:10;;;;;;;36.03;21.55;;;;;;;2.63;66.16;98344.59;259955;1105;114976;-73
2021/01/26 09:29:28;;;;;;;38.87;21.17;;;;;;;2.70;66.27;98350.45;259763;1105;115214;-73
2021/01/26 09:34:30;;;;;;;36.05;19.95;;;;;;;2.82;66.37;98352.58;259773;1105;114930;-73
2021/01/26 09:39:32;;;;;;;29.40;17.70;;;;;;;2.83;66.24;98357.75;259899;1105;115081;-72
2021/01/26 09:44:35;;;;;;;30.93;17.70;;;;;;;2.79;65.94;98357.95;259762;1105;115046;-72
2021/01/26 09:49:37;;;;;;;34.48;18.95;;;;;;;2.69;65.81;98360.11;259935;1105;114909;-74
2021/01/26 09:54:42;;;;;;;35.93;20.33;;;;;;;2.73;66.16;98361.69;259698;1105;114764;-73
2021/01/26 09:59:45;;;;;;;39.60;22.42;;;;;;;2.81;66.34;98363.98;260031;1105;115257;-74
2021/01/26 10:04:48;;;;;;;35.43;21.45;;;;;;;2.81;66.22;98366.61;259929;1105;114992;-75
2021/01/26 10:10:22;;;;;;;39.10;22.53;;;;;;;2.88;65.99;98368.06;259751;1105;114971;-75
2021/01/26 10:15:24;;;;;;;36.73;19.10;;;;;;;2.90;66.19;98366.23;259998;1105;115064;-74
2021/01/26 10:20:48;;;;;;;32.60;19.10;;;;;;;2.95;65.98;98360.77;259993;1105;114722;-75
2021/01/26 10:25:51;;;;;;;29.23;18.17;;;;;;;3.06;65.86;98364.67;259677;1105;115440;-74
2021/01/26 10:30:55;;;;;;;29.98;16.60;;;;;;;3.16;65.56;98372.15;259745;1105;114905;-72
2021/01/26 10:36:17;;;;;;;29.95;17.00;;;;;;;3.25;65.55;98359.47;259729;1105;114667;-71
2021/01/26 10:41:32;;;;;;;20.60;10.58;;;;;;;3.15;64.48;98362.56;259796;1105;115131;-72
2021/01/26 10:46:41;;;;;;;21.37;12.10;;;;;;;3.02;64.61;98357.84;259894;1105;115567;-74
2021/01/26 10:51:45;;;;;;;24.90;14.30;;;;;;;2.99;64.68;98373.75;259449;1105;115111;-74
2021/01/26 10:56:47;;;;;;;18.27;12.15;;;;;;;2.93;64.51;98370.52;259961;1105;114877;-73
2021/01/26 11:01:50;;;;;;;18.97;10.47;;;;;;;2.88;64.46;98378.57;260062;1105;115031;-73
2021/01/26 11:06:53;;;;;;;19.92;11.73;;;;;;;2.88;64.61;98368.06;260124;1105;115457;-73
2021/01/26 11:11:56;;;;;;;23.77;14.70;;;;;;;2.91;64.60;98375.82;259943;1105;115367;-70
2021/01/26 11:16:59;;;;;;;29.20;17.13;;;;;;;2.97;64.87;98378.20;260055;1105;114810;-71
2021/01/26 11:22:02;;;;;;;35.58;19.82;;;;;;;3.06;65.55;98369.09;260360;1105;115081;-72
2021/01/26 11:27:04;;;;;;;41.83;22.00;;;;;;;3.12;65.42;98368.80;260127;1105;115839;-72
2021/01/26 11:32:07;;;;;;;48.95;24.05;;;;;;;3.14;64.87;98368.75;259871;1105;115357;-70
2021/01/26 11:37:09;;;;;;;43.57;21.87;;;;;;;3.06;64.67;98361.20;260083;1105;115236;-74
2021/01/26 11:42:16;;;;;;;41.80;21.67;;;;;;;3.04;65.33;98355.14;259824;1105;115250;-73
2021/01/26 11:47:23;;;;;;;37.90;19.95;;;;;;;2.99;64.49;98355.34;259771;1105;114738;-71
2021/01/26 11:52:27;;;;;;;42.90;22.27;;;;;;;2.97;65.49;98357.17;255217;1105;115468;-73
2021/01/26 11:57:31;;;;;;;38.53;19.62;;;;;;;2.96;65.21;98363.36;258972;1105;115308;-74
2021/01/26 12:02:35;;;;;;;37.78;21.23;;;;;;;2.94;65.11;98359.08;258882;1105;114935;-71
2021/01/26 12:07:39;;;;;;;34.53;19.00;;;;;;;2.94;64.87;98359.08;258270;1105;115511;-73
2021/01/26 12:12:44;;;;;;;38.63;18.85;;;;;;;2.86;64.89;98356.78;259679;1105;116262;-73
2021/01/26 12:17:47;;;;;;;40.50;20.73;;;;;;;2.78;65.15;98361.48;259741;1105;114870;-73
2021/01/26 12:22:51;;;;;;;32.60;18.13;;;;;;;2.65;65.20;98366.41;259066;1105;114666;-74
2021/01/26 12:27:54;;;;;;;35.37;19.00;;;;;;;2.55;65.61;98372.95;259281;1105;114872;-71
2021/01/26 12:32:57;;;;;;;33.60;19.03;;;;;;;2.44;65.75;98368.11;259505;1105;114904;-72
2021/01/26 12:38:03;;;;;;;36.00;18.15;;;;;;;2.48;66.36;98359.21;259750;1105;115180;-72
2021/01/26 12:43:09;;;;;;;35.10;18.67;;;;;;;2.64;66.44;98366.45;259050;1105;115296;-77
2021/01/26 12:48:14;;;;;;;33.10;17.10;;;;;;;2.80;66.11;98371.02;257886;1105;114873;-72
2021/01/26 12:53:18;;;;;;;30.88;18.07;;;;;;;2.90;65.97;98368.02;259735;1105;115109;-72
2021/01/26 12:59:18;;;;;;;26.88;14.58;;;;;;;2.99;65.76;98371.12;259031;1112;101305;-62
2021/01/26 13:04:20;;;;;;;27.78;15.55;;;;;;;3.05;65.56;98378.72;258800;1113;114759;-63
2021/01/26 13:09:23;;;;;;;33.53;15.90;;;;;;;3.16;65.48;98369.52;258856;1113;114647;-63
2021/01/26 13:14:25;;;;;;;32.60;16.43;;;;;;;3.21;65.49;98359.67;258859;1113;115438;-62
2021/01/26 13:19:28;;;;;;;29.58;16.38;;;;;;;3.19;65.06;98364.13;258995;1112;114726;-63
2021/01/26 13:24:30;;;;;;;29.55;14.40;;;;;;;3.05;64.87;98369.98;258868;1112;114897;-63
2021/01/26 13:29:33;;;;;;;26.83;14.28;;;;;;;2.95;64.85;98366.88;258779;1112;114950;-62
2021/01/26 13:34:37;;;;;;;29.95;16.60;;;;;;;2.91;65.47;98383.70;258827;1113;114802;-68
2021/01/26 13:39:39;;;;;;;21.33;13.08;;;;;;;2.92;65.07;98376.67;258841;1113;114785;-69
2021/01/26 13:44:47;;;;;;;25.53;14.60;;;;;;;2.96;65.49;98379.13;258929;1112;115081;-65
2021/01/26 13:49:49;;;;;;;28.08;14.73;;;;;;;3.10;65.19;98367.17;258839;1112;115307;-65
2021/01/26 13:54:52;;;;;;;30.53;16.03;;;;;;;3.06;65.17;98376.97;258842;1112;114957;-65
2021/01/26 13:59:54;;;;;;;29.28;14.63;;;;;;;2.99;64.77;98386.00;258917;1112;117120;-66
2021/01/26 14:04:56;;;;;;;27.40;15.95;;;;;;;2.94;64.75;98374.84;258894;1113;115145;-66
2021/01/26 14:10:01;;;;;;;28.15;16.23;;;;;;;2.87;64.86;98389.16;258518;1112;115030;-67
2021/01/26 14:15:06;;;;;;;27.93;16.08;;;;;;;2.84;65.19;98396.24;257112;1113;115238;-66
2021/01/26 14:20:12;;;;;;;31.18;17.55;;;;;;;2.88;65.33;98388.23;258864;1109;115589;-66
2021/01/26 14:25:15;;;;;;;28.98;16.93;;;;;;;2.97;65.19;98383.45;258934;1112;114772;-66
2021/01/26 14:30:21;;;;;;;34.08;17.50;;;;;;;3.05;65.16;98383.97;258836;1112;115714;-65
2021/01/26 14:35:28;;;;;;;30.10;18.35;;;;;;;3.04;64.91;98390.16;258876;1112;114810;-65
2021/01/26 14:40:31;;;;;;;36.15;18.65;;;;;;;2.99;64.65;98397.40;257502;1112;114960;-66
2021/01/26 14:45:34;;;;;;;25.58;15.13;;;;;;;2.90;64.46;98396.92;258895;1112;115325;-66
2021/01/26 14:50:36;;;;;;;33.45;16.93;;;;;;;2.80;64.61;98402.55;258796;1113;115002;-65
2021/01/26 14:55:38;;;;;;;33.05;18.40;;;;;;;2.64;64.58;98417.21;258897;1113;115289;-67
2021/01/26 15:00:40;;;;;;;30.73;16.50;;;;;;;2.57;64.38;98427.10;258918;1112;114810;-66
2021/01/26 15:05:43;;;;;;;30.65;15.98;;;;;;;2.52;64.64;98425.59;258921;1112;115331;-67
2021/01/26 15:10:46;;;;;;;31.03;18.55;;;;;;;2.43;64.37;98434.67;258888;1112;115060;-66
2021/01/26 15:15:48;;;;;;;32.48;17.93;;;;;;;2.36;64.76;98444.56;258748;1112;115020;-68
2021/01/26 15:20:51;;;;;;;31.15;17.20;;;;;;;2.28;64.63;98443.16;258944;1112;115628;-66
2021/01/26 15:25:55;;;;;;;29.63;17.83;;;;;;;2.28;64.73;98451.03;258882;1112;114974;-66
2021/01/26 15:30:58;;;;;;;26.68;14.98;;;;;;;2.32;64.77;98452.63;258959;1113;115353;-67
2021/01/26 15:36:01;;;;;;;38.15;19.35;;;;;;;2.30;64.64;98455.29;256694;1112;115271;-69
2021/01/26 15:41:03;;;;;;;31.48;17.80;;;;;;;2.29;64.62;98448.34;258893;1112;115670;-69
2021/01/26 15:46:06;;;;;;;32.93;18.38;;;;;;;2.31;64.81;98456.14;259033;1112;115502;-70
2021/01/26 15:51:10;;;;;;;36.25;18.88;;;;;;;2.36;64.99;98457.69;258900;1112;115796;-67
2021/01/26 15:56:12;;;;;;;34.90;19.10;;;;;;;2.39;65.03;98464.59;258960;1112;115262;-68
2021/01/26 16:01:15;;;;;;;39.53;21.33;;;;;;;2.38;64.84;98473.40;258779;1113;115345;-68
2021/01/26 16:06:22;;;;;;;37.55;20.30;;;;;;;2.30;64.76;98467.56;258856;1113;115176;-69
2021/01/26 16:11:24;;;;;;;39.30;20.73;;;;;;;2.21;65.00;98466.16;258865;1112;114608;-68
2021/01/26 16:16:27;;;;;;;38.05;21.18;;;;;;;2.10;64.99;98463.06;258802;1110;115175;-68
2021/01/26 16:21:29;;;;;;;37.40;19.80;;;;;;;2.05;64.98;98465.86;258896;1112;115271;-69
2021/01/26 16:26:32;;;;;;;39.80;19.88;;;;;;;2.02;65.63;98479.09;258840;1112;115657;-69
2021/01/26 16:31:34;;;;;;;40.73;21.00;;;;;;;1.98;65.22;98488.00;258845;1112;115264;-69
2021/01/26 16:36:36;;;;;;;47.85;22.68;;;;;;;1.89;65.40;98486.55;258928;1112;115073;-70
2021/01/26 16:41:39;;;;;;;45.48;21.00;;;;;;;1.90;65.37;98495.27;258815;1112;114519;-67
2021/01/26 16:46:41;;;;;;;39.88;21.45;;;;;;;1.86;65.34;98494.52;258878;1112;115666;-69
2021/01/26 16:51:43;;;;;;;43.33;23.02;;;;;;;1.92;65.57;98496.08;258858;1112;115192;-69
2021/01/26 16:56:46;;;;;;;37.00;20.98;;;;;;;1.93;65.33;98502.18;258818;1113;114899;-69
2021/01/26 17:01:48;;;;;;;44.33;22.08;;;;;;;1.96;65.23;98497.67;258917;1112;116164;-66
2021/01/26 17:06:51;;;;;;;45.85;22.65;;;;;;;1.94;65.20;98496.89;258798;1113;115822;-67
2021/01/26 17:11:53;;;;;;;49.78;24.13;;;;;;;1.93;65.42;98487.29;258853;1112;115176;-67
2021/01/26 17:16:55;;;;;;;43.87;23.27;;;;;;;1.96;65.26;98497.67;258777;1113;115178;-68
2021/01/26 17:21:58;;;;;;;46.55;23.70;;;;;;;1.89;64.77;98493.56;258995;1113;115068;-69
2021/01/26 17:27:00;;;;;;;43.75;23.98;;;;;;;1.84;64.82;98504.23;258708;1113;115723;-70
2021/01/26 17:32:03;;;;;;;47.83;25.13;;;;;;;1.84;65.24;98511.25;258897;1112;115258;-66
2021/01/26 17:37:06;;;;;;;45.55;25.30;;;;;;;1.85;65.46;98505.94;258891;1112;115376;-69
2021/01/26 17:42:15;;;;;;;45.38;24.73;;;;;;;1.86;65.15;98512.03;258919;1112;115299;-69
2021/01/26 17:47:18;;;;;;;48.00;25.23;;;;;;;1.87;65.33;98509.38;258900;1111;115388;-69
2021/01/26 17:52:21;;;;;;;51.73;27.43;;;;;;;1.91;65.25;98506.65;258817;1113;115483;-73
2021/01/26 17:57:25;;;;;;;54.55;27.33;;;;;;;1.93;65.56;98504.80;258859;1112;114761;-68
2021/01/26 18:02:28;;;;;;;53.03;27.40;;;;;;;1.93;65.33;98496.94;258859;1112;114676;-68
2021/01/26 18:07:30;;;;;;;55.30;29.33;;;;;;;1.94;65.19;98511.75;258913;1112;115838;-68
2021/01/26 18:12:33;;;;;;;56.23;29.40;;;;;;;1.87;65.04;98503.28;258740;1113;114907;-67
2021/01/26 18:17:35;;;;;;;58.18;31.15;;;;;;;1.85;65.14;98497.22;258831;1113;115010;-68
2021/01/26 18:22:37;;;;;;;63.55;31.43;;;;;;;1.79;65.20;98502.67;258853;1112;115203;-68
2021/01/26 18:27:41;;;;;;;70.55;34.05;;;;;;;1.79;65.42;98502.67;258869;1113;115052;-69
2021/01/26 18:32:43;;;;;;;69.10;33.70;;;;;;;1.73;65.32;98506.36;258798;1112;114671;-69
2021/01/26 18:37:46;;;;;;;68.48;34.98;;;;;;;1.71;65.34;98510.81;258854;1112;115561;-68
2021/01/26 18:42:48;;;;;;;63.95;34.53;;;;;;;1.71;65.86;98509.97;258816;1112;114721;-70
2021/01/26 18:47:51;;;;;;;71.23;34.73;;;;;;;1.74;65.38;98517.73;258745;1113;114751;-69
2021/01/26 18:52:54;;;;;;;63.63;31.53;;;;;;;1.74;65.19;98526.45;258817;1112;115688;-68
2021/01/26 18:57:56;;;;;;;57.48;30.23;;;;;;;1.65;65.32;98530.23;258852;1112;114938;-70
2021/01/26 19:03:00;;;;;;;68.45;33.50;;;;;;;1.72;65.34;98540.52;258682;1113;115441;-70
2021/01/26 19:08:03;;;;;;;57.43;28.73;;;;;;;1.76;65.33;98547.37;258866;1112;114890;-70
2021/01/26 19:13:06;;;;;;;63.85;28.90;;;;;;;1.80;64.93;98544.61;258899;1112;114814;-70
2021/01/26 19:18:09;;;;;;;57.70;29.13;;;;;;;1.85;64.78;98547.06;258869;1112;115152;-70
2021/01/26 19:23:11;;;;;;;57.65;27.20;;;;;;;1.92;64.86;98537.21;258904;1112;115267;-70
2021/01/26 19:28:13;;;;;;;56.73;26.68;;;;;;;1.94;64.29;98551.11;258749;1112;115957;-65
2021/01/26 19:33:16;;;;;;;50.10;25.80;;;;;;;1.97;64.37;98549.27;258875;1113;115108;-66
2021/01/26 19:38:18;;;;;;;53.40;27.48;;;;;;;2.00;64.15;98557.00;258754;1116;115273;-67
2021/01/26 19:43:21;;;;;;;57.40;26.18;;;;;;;1.96;64.22;98550.16;258806;1113;114932;-66
2021/01/26 19:48:23;;;;;;;48.98;23.93;;;;;;;1.96;63.69;98549.30;258964;1112;115578;-66
2021/01/26 19:53:26;;;;;;;50.50;25.78;;;;;;;1.91;63.47;98556.50;258780;1113;115101;-65
2021/01/26 19:58:28;;;;;;;48.58;24.43;;;;;;;2.01;63.82;98557.89;258964;1112;115209;-65
2021/01/26 20:03:31;;;;;;;52.15;24.73;;;;;;;2.06;63.74;98564.66;258816;1113;115216;-65
2021/01/26 20:08:33;;;;;;;49.78;24.43;;;;;;;2.03;62.95;98580.52;258894;1112;114881;-65
2021/01/26 20:13:35;;;;;;;48.95;22.78;;;;;;;1.99;63.17;98571.05;258862;1112;115341;-65
2021/01/26 20:18:38;;;;;;;48.90;23.78;;;;;;;2.01;63.21;98582.36;258902;1112;115213;-64
2021/01/26 20:23:40;;;;;;;42.75;21.77;;;;;;;2.03;62.98;98592.78;258824;1112;114800;-65
2021/01/26 20:28:43;;;;;;;53.57;25.33;;;;;;;2.02;62.89;98578.81;258847;1112;114802;-67
2021/01/26 20:33:53;;;;;;;47.70;24.13;;;;;;;1.91;62.69;98586.20;258869;1112;114560;-64
2021/01/26 20:38:55;;;;;;;55.40;25.50;;;;;;;1.86;62.43;98577.63;258960;1112;115106;-66
2021/01/26 20:43:58;;;;;;;50.33;24.83;;;;;;;1.83;62.42;98590.84;258947;1112;114641;-68
2021/01/26 20:49:00;;;;;;;49.75;24.38;;;;;;;1.79;62.19;98583.98;258839;1112;115080;-68
2021/01/26 20:54:03;;;;;;;52.15;24.38;;;;;;;1.81;62.47;98583.04;258889;1112;114589;-68
2021/01/26 20:59:05;;;;;;;58.05;27.30;;;;;;;1.81;62.37;98590.05;258936;1113;114674;-69
2021/01/26 21:04:07;;;;;;;54.68;25.93;;;;;;;1.80;62.25;98586.58;258839;1113;115069;-68
2021/01/26 21:09:10;;;;;;;50.23;24.70;;;;;;;1.78;61.91;98582.29;258792;1116;114742;-70
2021/01/26 21:14:14;;;;;;;54.40;25.65;;;;;;;1.78;62.16;98592.78;258858;1112;114911;-71
2021/01/26 21:19:16;;;;;;;53.73;25.95;;;;;;;1.78;61.95;98595.41;258801;1112;115251;-72
2021/01/26 21:24:22;;;;;;;50.80;25.48;;;;;;;1.75;61.89;98592.88;258847;1112;115388;-73
2021/01/26 21:29:24;;;;;;;55.00;26.78;;;;;;;1.65;61.50;98603.67;258758;1112;115317;-71
2021/01/26 21:34:27;;;;;;;53.83;28.05;;;;;;;1.62;61.85;98606.39;258832;1112;115096;-69
2021/01/26 21:39:29;;;;;;;56.30;28.00;;;;;;;1.63;62.11;98615.11;258961;1113;114943;-69
2021/01/26 21:44:31;;;;;;;63.55;30.88;;;;;;;1.56;61.69;98609.23;258861;1111;115921;-69
2021/01/26 21:49:33;;;;;;;56.60;27.98;;;;;;;1.49;61.59;98612.08;258864;1112;114986;-70
2021/01/26 21:54:36;;;;;;;58.45;28.63;;;;;;;1.47;61.70;98613.91;258918;1112;115183;-69
2021/01/26 21:59:39;;;;;;;64.40;31.93;;;;;;;1.44;61.93;98609.63;258880;1112;115513;-71
2021/01/26 22:04:41;;;;;;;67.20;31.53;;;;;;;1.47;62.46;98608.67;258918;1112;115322;-70
2021/01/26 22:09:43;;;;;;;61.48;29.33;;;;;;;1.50;62.10;98611.20;258783;1112;115079;-69
2021/01/26 22:14:46;;;;;;;64.13;31.45;;;;;;;1.51;61.82;98618.15;258807;1113;115146;-69
2021/01/26 22:19:48;;;;;;;73.55;33.18;;;;;;;1.48;61.95;98615.63;258920;1112;115005;-68
2021/01/26 22:24:50;;;;;;;68.43;33.47;;;;;;;1.42;62.02;98612.27;258740;1112;115668;-69
2021/01/26 22:29:52;;;;;;;69.68;33.25;;;;;;;1.36;61.82;98612.50;258712;1113;115297;-69
2021/01/26 22:34:54;;;;;;;73.95;34.40;;;;;;;1.33;62.21;98617.83;258829;1112;114927;-69
2021/01/26 22:39:57;;;;;;;77.30;34.10;;;;;;;1.37;61.77;98615.97;258837;1112;114807;-69
2021/01/26 22:44:59;;;;;;;80.53;34.05;;;;;;;1.28;61.76;98614.48;257528;1113;115089;-70
2021/01/26 22:50:02;;;;;;;85.20;38.65;;;;;;;1.27;61.91;98627.65;258898;1112;114924;-70
2021/01/26 22:55:05;;;;;;;78.85;34.90;;;;;;;1.27;61.76;98623.27;258752;1113;115002;-70
2021/01/26 23:00:28;;;;;;;89.33;37.93;;;;;;;1.26;62.10;98626.80;258121;1109;115446;-68
2021/01/26 23:05:30;;;;;;;74.93;35.18;;;;;;;1.28;62.26;98630.20;258963;1112;114834;-70
2021/01/26 23:10:36;;;;;;;81.80;37.20;;;;;;;1.33;62.18;98616.98;258883;1111;114781;-70
2021/01/26 23:15:40;;;;;;;66.63;30.50;;;;;;;1.36;62.36;98617.73;256735;1112;115721;-70
2021/01/26 23:20:44;;;;;;;81.10;37.18;;;;;;;1.34;62.39;98609.05;258806;1113;115237;-68